Time;durP1;ratioP1;P1;durP2;ratioP2;P2;SDS_P1;SDS_P2;PMS_P1;PMS_P2;Temp;Humidity;BMP_temperature;BMP_pressure;BME280_temperature;BME280_humidity;BME280_pressure;Samples;Min_cycle;Max_cycle;Signal;HPM_P1;HPM_P2
2022/11/01 00:01:37;;;;;;;;;;;;;;;13.75;69.09;101630.56;5037714;28;19924;-87
2022/11/01 00:04:03;;;;;;;;;;;;;;;13.74;69.36;101637.78;5015594;28;20368;-85
2022/11/01 00:06:28;;;;;;;;;;;;;;;13.72;69.16;101635.25;5046466;28;19929;-86
2022/11/01 00:08:54;;;;;;;;;;;;;;;13.67;69.57;101632.19;5016418;28;19927;-87
2022/11/01 00:11:19;;;;;;;;;;;;;;;13.62;69.57;101634.50;5005722;28;19925;-85
2022/11/01 00:13:45;;;;;;;;;;;;;;;13.58;69.89;101630.44;5020695;28;19931;-85
2022/11/01 00:16:12;;;;;;;;;;;;;;;13.56;69.85;101632.44;5027032;28;19921;-85
2022/11/01 00:18:38;;;;;;;;;;;;;;;13.61;69.53;101631.97;5041692;28;20019;-84
2022/11/01 00:21:03;;;;;;;;;;;;;;;13.50;70.06;101627.66;5003828;28;20353;-85
2022/11/01 00:23:28;;;;;;;;;;;;;;;13.50;70.01;101627.66;5019569;28;19921;-84
2022/11/01 00:25:59;;;;;;;;;;;;;;;13.45;70.33;101627.28;5018671;28;20436;-86
2022/11/01 00:28:28;;;;;;;;;;;;;;;13.39;70.38;101638.69;5030366;28;19996;-86
2022/11/01 00:30:54;;;;;;;;;;;;;;;13.27;70.47;101636.25;5008429;28;20308;-87
2022/11/01 00:33:20;;;;;;;;;;;;;;;13.24;70.94;101635.66;5021435;28;20027;-86
2022/11/01 00:35:47;;;;;;;;;;;;;;;13.14;71.22;101638.44;5051962;28;19925;-88
2022/11/01 00:38:30;;;;;;;;;;;;;;;13.03;71.55;101641.38;5019412;28;19925;-86
2022/11/01 00:40:56;;;;;;;;;;;;;;;12.98;71.58;101635.59;5031082;28;20035;-86
2022/11/01 00:43:21;;;;;;;;;;;;;;;12.92;71.90;101636.19;5050194;28;20023;-85
2022/11/01 00:45:47;;;;;;;;;;;;;;;12.89;72.04;101638.19;5047289;28;21209;-88
2022/11/01 00:48:13;;;;;;;;;;;;;;;12.88;71.74;101631.09;5012474;28;20361;-86
2022/11/01 00:50:43;;;;;;;;;;;;;;;12.88;71.97;101630.25;5031737;28;19928;-86
2022/11/01 00:53:10;;;;;;;;;;;;;;;12.82;72.07;101633.56;5017134;28;19936;-85
2022/11/01 00:55:36;;;;;;;;;;;;;;;12.81;72.03;101624.63;5014543;28;19929;-86
2022/11/01 00:58:02;;;;;;;;;;;;;;;12.80;71.97;101633.69;5034316;28;20073;-87
2022/11/01 01:00:28;;;;;;;;;;;;;;;12.76;72.08;101623.38;5021985;28;19929;-89
2022/11/01 01:02:55;;;;;;;;;;;;;;;12.75;72.05;101625.22;5026018;28;19934;-87
2022/11/01 01:05:21;;;;;;;;;;;;;;;12.77;72.13;101628.63;5036183;28;20899;-85
2022/11/01 01:07:47;;;;;;;;;;;;;;;12.60;72.55;101629.44;5026602;28;19991;-86
2022/11/01 01:10:13;;;;;;;;;;;;;;;12.59;72.57;101630.44;5051752;28;19939;-86
2022/11/01 01:12:43;;;;;;;;;;;;;;;12.56;72.43;101630.72;5031437;28;19921;-85
2022/11/01 01:15:08;;;;;;;;;;;;;;;12.54;72.36;101632.72;5029394;28;20387;-89
2022/11/01 01:17:34;;;;;;;;;;;;;;;12.46;72.74;101630.78;5046349;28;19925;-88
2022/11/01 01:20:00;;;;;;;;;;;;;;;12.33;72.95;101625.72;5040754;28;19928;-88
2022/11/01 01:22:26;;;;;;;;;;;;;;;12.31;72.89;101626.88;4997768;28;19929;-86
2022/11/01 01:24:51;;;;;;;;;;;;;;;12.29;73.04;101629.75;5035080;28;19928;-90
2022/11/01 01:27:18;;;;;;;;;;;;;;;12.30;72.85;101620.63;5033637;28;20471;-87
2022/11/01 01:29:44;;;;;;;;;;;;;;;12.04;73.71;101621.31;5033985;28;19944;-88
2022/11/01 01:32:13;;;;;;;;;;;;;;;12.18;73.02;101622.69;5021570;28;19933;-89
2022/11/01 01:34:41;;;;;;;;;;;;;;;12.14;73.51;101620.41;5030866;28;19972;-88
2022/11/01 01:37:07;;;;;;;;;;;;;;;12.14;73.52;101621.25;5011372;28;19935;-87
2022/11/01 01:39:34;;;;;;;;;;;;;;;12.10;73.63;101624.41;5032088;28;19920;-87
2022/11/01 01:42:28;;;;;;;;;;;;;;;12.04;73.64;101629.41;5039091;28;19932;-88
2022/11/01 01:44:56;;;;;;;;;;;;;;;12.11;73.58;101620.72;5026832;28;19935;-86
2022/11/01 01:47:22;;;;;;;;;;;;;;;12.10;73.74;101629.78;5013054;28;20442;-88
2022/11/01 01:49:48;;;;;;;;;;;;;;;12.11;73.66;101626.97;5035398;28;19931;-86
2022/11/01 01:52:13;;;;;;;;;;;;;;;12.09;73.86;101628.13;5013314;28;19924;-87
2022/11/01 01:54:39;;;;;;;;;;;;;;;12.20;73.32;101633.31;5030565;28;19955;-89
2022/11/01 01:57:04;;;;;;;;;;;;;;;12.17;73.63;101636.28;5026837;28;20038;-87
2022/11/01 01:59:29;;;;;;;;;;;;;;;12.18;73.67;101628.06;5009186;28;20376;-86
2022/11/01 02:01:55;;;;;;;;;;;;;;;12.23;73.57;101636.56;4993725;28;19928;-90
2022/11/01 02:04:21;;;;;;;;;;;;;;;12.24;73.42;101632.00;4995119;28;20371;-87
2022/11/01 02:06:47;;;;;;;;;;;;;;;12.24;73.34;101637.41;5011437;28;19928;-88
2022/11/01 02:09:13;;;;;;;;;;;;;;;12.12;74.01;101633.19;5037564;28;20408;-86
2022/11/01 02:11:39;;;;;;;;;;;;;;;12.14;74.00;101642.00;4997395;28;20061;-87
2022/11/01 02:14:06;;;;;;;;;;;;;;;12.10;74.20;101629.78;5017186;28;19921;-87
2022/11/01 02:16:50;;;;;;;;;;;;;;;12.12;73.82;101642.13;5044637;28;19952;-87
2022/11/01 02:19:34;;;;;;;;;;;;;;;12.08;74.24;101638.06;5019082;28;19916;-87
2022/11/01 02:22:02;;;;;;;;;;;;;;;12.12;74.02;101634.03;5042155;28;19955;-87
2022/11/01 02:24:49;;;;;;;;;;;;;;;12.12;74.06;101638.59;5022528;28;19924;-87
2022/11/01 02:27:33;;;;;;;;;;;;;;;12.08;74.23;101643.44;5044180;28;19929;-86
2022/11/01 02:30:27;;;;;;;;;;;;;;;11.99;74.41;101639.78;5045096;28;20439;-83
2022/11/01 02:32:55;;;;;;;;;;;;;;;11.89;74.96;101638.09;5016396;28;19921;-86
2022/11/01 02:35:24;;;;;;;;;;;;;;;11.85;75.17;101642.91;5033975;28;19935;-86
2022/11/01 02:37:51;;;;;;;;;;;;;;;11.91;74.46;101650.41;5016596;28;19979;-88
2022/11/01 02:40:36;;;;;;;;;;;;;;;11.81;74.76;101646.88;5040859;28;19979;-87
2022/11/01 02:43:11;;;;;;;;;;;;;;;11.82;74.72;101653.94;4997903;28;20348;-87
2022/11/01 02:45:37;;;;;;;;;;;;;;;11.80;74.74;101648.72;5051502;28;19975;-88
2022/11/01 02:48:03;;;;;;;;;;;;;;;11.74;74.96;101646.59;5014819;28;19962;-88
2022/11/01 02:50:37;;;;;;;;;;;;;;;11.77;74.80;101646.28;5034261;28;20683;-88
2022/11/01 02:53:02;;;;;;;;;;;;;;;11.83;74.68;101653.81;5031298;28;19935;-89
2022/11/01 02:55:28;;;;;;;;;;;;;;;11.85;74.30;101648.28;5012771;28;19924;-89
2022/11/01 02:58:17;;;;;;;;;;;;;;;11.84;74.12;101651.97;5013507;28;20082;-88
2022/11/01 03:00:44;;;;;;;;;;;;;;;11.83;74.34;101650.28;5031371;28;20317;-89
2022/11/01 03:03:26;;;;;;;;;;;;;;;11.84;74.18;101646.56;4999644;28;19924;-86
2022/11/01 03:05:54;;;;;;;;;;;;;;;11.83;74.37;101650.28;5015548;28;20411;-88
2022/11/01 03:08:21;;;;;;;;;;;;;;;11.83;74.17;101656.50;5012064;28;19968;-88
2022/11/01 03:11:01;;;;;;;;;;;;;;;11.85;74.27;101653.69;5034658;28;19925;-88
2022/11/01 03:13:31;;;;;;;;;;;;;;;11.84;74.33;101658.19;5031365;28;19935;-88
2022/11/01 03:16:11;;;;;;;;;;;;;;;11.84;74.37;101658.19;5031369;28;19921;-88
2022/11/01 03:18:38;;;;;;;;;;;;;;;11.83;74.48;101658.34;5011767;28;19972;-89
2022/11/01 03:21:15;;;;;;;;;;;;;;;11.83;74.32;101661.06;5012546;28;19944;-88
2022/11/01 03:23:46;;;;;;;;;;;;;;;11.84;74.36;101660.03;5035442;28;20312;-86
2022/11/01 03:26:12;;;;;;;;;;;;;;;11.82;74.46;101654.81;5022588;28;19955;-88
2022/11/01 03:28:38;;;;;;;;;;;;;;;11.81;74.68;101658.50;5053305;28;19920;-86
2022/11/01 03:31:05;;;;;;;;;;;;;;;11.82;74.46;101659.34;5001500;28;20305;-89
2022/11/01 03:33:31;;;;;;;;;;;;;;;11.81;74.38;101657.66;5033229;28;19928;-89
2022/11/01 03:35:58;;;;;;;;;;;;;;;11.76;74.57;101663.47;5033784;28;20365;-87
2022/11/01 03:38:24;;;;;;;;;;;;;;;11.77;74.61;101661.63;5016048;28;19921;-87
2022/11/01 03:40:55;;;;;;;;;;;;;;;11.75;74.59;101659.09;5019564;28;19948;-88
2022/11/01 03:43:20;;;;;;;;;;;;;;;11.79;74.45;101659.63;5044854;28;19921;-88
2022/11/01 03:45:46;;;;;;;;;;;;;;;11.76;74.47;101655.38;5037880;28;19936;-88
2022/11/01 03:48:13;;;;;;;;;;;;;;;11.74;74.91;101649.28;5031831;28;19935;-86
2022/11/01 03:50:39;;;;;;;;;;;;;;;11.74;74.88;101662.75;5032819;28;20147;-88
2022/11/01 03:53:06;;;;;;;;;;;;;;;11.75;74.74;101669.00;5029853;28;19925;-86
2022/11/01 03:55:31;;;;;;;;;;;;;;;11.67;74.84;101660.78;5042295;28;19925;-86
2022/11/01 03:57:58;;;;;;;;;;;;;;;11.69;74.45;101662.34;5052522;28;19921;-86
2022/11/01 04:00:30;;;;;;;;;;;;;;;11.70;74.25;101661.34;5039526;28;19959;-85
2022/11/01 04:02:56;;;;;;;;;;;;;;;11.66;74.43;101664.47;5032470;28;20166;-87
2022/11/01 04:05:24;;;;;;;;;;;;;;;11.65;74.33;101662.78;5034306;28;19920;-85
2022/11/01 04:07:50;;;;;;;;;;;;;;;11.61;74.28;101663.06;5049911;28;20444;-85
2022/11/01 04:10:15;;;;;;;;;;;;;;;11.61;74.38;101662.19;5030455;28;20020;-86
2022/11/01 04:12:42;;;;;;;;;;;;;;;11.59;74.12;101665.06;5021265;28;20016;-87
2022/11/01 04:20:56;;;;;;;;;;;;;;;11.37;74.84;101676.09;5048563;28;20077;-86
2022/11/01 04:23:22;;;;;;;;;;;;;;;11.27;74.96;101670.72;5050767;28;19966;-86
2022/11/01 04:25:47;;;;;;;;;;;;;;;11.37;74.62;101676.09;5033296;28;20312;-86
2022/11/01 04:28:16;;;;;;;;;;;;;;;11.33;74.71;101674.69;5051599;28;20332;-86
2022/11/01 04:30:45;;;;;;;;;;;;;;;11.24;74.95;101676.41;5050416;28;19971;-86
2022/11/01 04:33:12;;;;;;;;;;;;;;;11.24;74.63;101670.13;5051055;28;19920;-86
2022/11/01 04:35:37;;;;;;;;;;;;;;;11.23;74.85;101684.59;5050274;28;20377;-85
2022/11/01 04:38:04;;;;;;;;;;;;;;;11.17;75.12;101686.88;5050342;28;19925;-86
2022/11/01 04:40:30;;;;;;;;;;;;;;;11.27;74.88;101686.03;5046430;28;19920;-87
2022/11/01 04:42:56;;;;;;;;;;;;;;;11.20;75.02;101683.88;5048305;28;20003;-85
2022/11/01 04:45:22;;;;;;;;;;;;;;;11.22;74.92;101685.59;5030269;28;19971;-86
2022/11/01 04:48:01;;;;;;;;;;;;;;;11.29;74.65;101686.75;5032151;28;21027;-86
2022/11/01 04:50:26;;;;;;;;;;;;;;;11.29;74.87;101692.97;5046845;28;19933;-85
2022/11/01 04:52:52;;;;;;;;;;;;;;;11.28;74.64;101688.56;5052604;28;19928;-84
2022/11/01 04:55:21;;;;;;;;;;;;;;;11.28;74.74;101688.56;5044126;28;20389;-86
2022/11/01 04:57:50;;;;;;;;;;;;;;;11.32;74.72;101689.16;5048934;28;19929;-84
2022/11/01 05:00:15;;;;;;;;;;;;;;;11.43;74.72;101694.41;5030439;28;20261;-86
2022/11/01 05:02:41;;;;;;;;;;;;;;;11.53;74.16;101695.25;5049641;28;20396;-86
2022/11/01 05:05:06;;;;;;;;;;;;;;;11.56;73.83;101694.94;5028709;28;19920;-84
2022/11/01 05:07:33;;;;;;;;;;;;;;;11.61;73.67;101698.09;5026674;28;19932;-87
2022/11/01 05:09:59;;;;;;;;;;;;;;;11.73;73.39;101697.91;5031635;28;19921;-87
2022/11/01 05:12:24;;;;;;;;;;;;;;;11.73;73.40;101689.81;5033419;28;20411;-86
2022/11/01 05:14:49;;;;;;;;;;;;;;;11.81;73.43;101695.38;5041020;28;20000;-83
2022/11/01 05:17:16;;;;;;;;;;;;;;;11.89;73.25;101700.91;5023120;28;19975;-88
2022/11/01 05:19:43;;;;;;;;;;;;;;;11.99;73.12;101707.16;5049845;28;19952;-86
2022/11/01 05:22:08;;;;;;;;;;;;;;;12.06;73.05;101709.25;5049407;28;19921;-90
2022/11/01 05:24:47;;;;;;;;;;;;;;;;;;;;;
2022/11/01 05:27:21;;;;;;;;;;;;;;;12.88;71.04;101711.22;5056950;28;20015;-88
2022/11/01 05:29:47;;;;;;;;;;;;;;;13.80;68.57;101718.25;5049630;28;19913;-92
2022/11/01 05:32:14;;;;;;;;;;;;;;;14.22;66.61;101716.72;5058140;28;19920;-89
2022/11/01 05:34:40;;;;;;;;;;;;;;;15.06;64.14;101715.97;5058748;28;19931;-92
2022/11/01 05:37:09;;;;;;;;;;;;;;;16.24;61.18;101713.81;5058295;28;19942;-92
2022/11/01 05:39:36;;;;;;;;;;;;;;;16.93;58.06;101707.88;5036212;28;19955;-93
2022/11/01 05:42:16;;;;;;;;;;;;;;;17.76;54.82;101719.88;5065084;28;20387;-93
2022/11/01 05:44:47;;;;;;;;;;;;;;;17.69;54.09;101721.66;5022614;28;19991;-90
2022/11/01 05:47:15;;;;;;;;;;;;;;;17.99;53.94;101721.78;5048956;28;19925;-92
2022/11/01 05:49:42;;;;;;;;;;;;;;;18.00;53.39;101729.75;5035719;28;19962;-90
2022/11/01 05:52:08;;;;;;;;;;;;;;;18.12;52.99;101728.28;5019754;28;19951;-88
2022/11/01 05:54:33;;;;;;;;;;;;;;;19.35;50.17;101723.25;5028872;28;19917;-88
2022/11/01 05:57:00;;;;;;;;;;;;;;;20.60;47.00;101721.81;5027461;28;19931;-89
2022/11/01 05:59:27;;;;;;;;;;;;;;;21.71;44.39;101727.88;5043859;28;19932;-87
2022/11/01 06:01:53;;;;;;;;;;;;;;;22.60;41.43;101722.16;5049976;28;20400;-87
2022/11/01 06:04:18;;;;;;;;;;;;;;;23.54;39.63;101727.00;5029746;28;19960;-85
2022/11/01 06:06:43;;;;;;;;;;;;;;;24.56;38.31;101721.31;5049675;28;19921;-89
2022/11/01 06:09:09;;;;;;;;;;;;;;;25.36;36.09;101723.09;5049881;28;19952;-89
2022/11/01 06:11:34;;;;;;;;;;;;;;;25.96;34.74;101730.41;5032723;28;19928;-87
2022/11/01 06:13:59;;;;;;;;;;;;;;;26.45;33.30;101732.94;5035040;28;19917;-90
2022/11/01 06:16:25;;;;;;;;;;;;;;;26.62;32.19;101731.19;5032088;28;19912;-86
2022/11/01 06:18:51;;;;;;;;;;;;;;;27.33;31.68;101730.97;5033979;28;20419;-89
2022/11/01 06:21:16;;;;;;;;;;;;;;;27.51;31.05;101730.78;5032712;28;19921;-87
2022/11/01 06:23:44;;;;;;;;;;;;;;;27.95;30.43;101735.69;5031413;28;19948;-87
2022/11/01 06:26:10;;;;;;;;;;;;;;;28.67;29.03;101736.78;5032014;28;19929;-86
2022/11/01 06:28:35;;;;;;;;;;;;;;;28.99;28.98;101740.50;5032072;28;20286;-88
2022/11/01 06:31:01;;;;;;;;;;;;;;;29.37;27.85;101741.50;5031596;28;20020;-88
2022/11/01 06:33:27;;;;;;;;;;;;;;;29.87;27.27;101745.06;5031935;28;19921;-87
2022/11/01 06:35:52;;;;;;;;;;;;;;;30.30;26.29;101743.19;5050746;28;19921;-89
2022/11/01 06:38:18;;;;;;;;;;;;;;;30.44;26.12;101736.06;5032220;28;20755;-88
2022/11/01 06:40:43;;;;;;;;;;;;;;;30.69;25.53;101745.63;5031878;28;19921;-90
2022/11/01 06:43:09;;;;;;;;;;;;;;;30.94;25.38;101749.66;5016087;28;20011;-87
2022/11/01 06:45:34;;;;;;;;;;;;;;;31.11;25.21;101751.09;5029569;28;20324;-87
2022/11/01 06:48:01;;;;;;;;;;;;;;;31.31;24.40;101744.78;5022890;28;19917;-85
2022/11/01 06:50:26;;;;;;;;;;;;;;;32.06;24.07;101751.84;5037661;28;19921;-87
2022/11/01 06:52:54;;;;;;;;;;;;;;;32.23;23.55;101751.53;5050851;28;19917;-87
2022/11/01 06:55:27;;;;;;;;;;;;;;;32.44;23.03;101750.38;5033458;28;19924;-87
2022/11/01 06:57:53;;;;;;;;;;;;;;;32.63;23.15;101749.78;5025234;28;19965;-88
2022/11/01 07:00:19;;;;;;;;;;;;;;;32.63;23.06;101750.63;5010376;28;19917;-88
2022/11/01 07:02:44;;;;;;;;;;;;;;;32.76;22.89;101760.34;5009242;28;19924;-87
2022/11/01 07:05:10;;;;;;;;;;;;;;;32.82;22.69;101753.63;4984275;28;20378;-86
2022/11/01 07:07:35;;;;;;;;;;;;;;;32.52;22.68;101760.97;5008450;28;19948;-88
2022/11/01 07:10:00;;;;;;;;;;;;;;;32.67;22.90;101757.31;5008814;28;20382;-86
2022/11/01 07:12:26;;;;;;;;;;;;;;;33.07;22.72;101757.44;5025264;28;20013;-85
2022/11/01 07:14:51;;;;;;;;;;;;;;;33.17;22.66;101755.41;4997007;28;20357;-88
2022/11/01 07:17:19;;;;;;;;;;;;;;;33.43;22.50;101755.25;5018169;28;20378;-88
2022/11/01 07:19:45;;;;;;;;;;;;;;;33.72;21.38;101755.38;5011345;28;19918;-86
2022/11/01 07:22:10;;;;;;;;;;;;;;;33.49;21.86;101762.47;4994131;28;19924;-88
2022/11/01 07:24:36;;;;;;;;;;;;;;;33.14;22.33;101756.00;5020696;28;19979;-84
2022/11/01 07:27:01;;;;;;;;;;;;;;;33.46;22.73;101756.63;5013643;28;19960;-88
2022/11/01 07:29:41;;;;;;;;;;;;;;;33.57;22.57;101755.47;5019351;28;19923;-87
2022/11/01 07:32:07;;;;;;;;;;;;;;;33.44;22.79;101751.38;5007903;28;19932;-88
2022/11/01 07:34:32;;;;;;;;;;;;;;;33.55;22.49;101749.34;4987315;28;20004;-88
2022/11/01 07:36:58;;;;;;;;;;;;;;;33.66;22.61;101745.38;5012377;28;20004;-86
2022/11/01 07:39:25;;;;;;;;;;;;;;;33.42;22.77;101751.66;4996169;28;20408;-87
2022/11/01 07:41:52;;;;;;;;;;;;;;;33.19;23.55;101752.34;5014614;28;19917;-88
2022/11/01 07:44:18;;;;;;;;;;;;;;;33.39;23.67;101748.63;5011319;28;20000;-86
2022/11/01 07:46:43;;;;;;;;;;;;;;;32.73;24.94;101746.97;5022195;28;20003;-88
2022/11/01 07:49:08;;;;;;;;;;;;;;;32.49;25.20;101749.53;4995461;28;19922;-87
2022/11/01 07:51:34;;;;;;;;;;;;;;;32.50;25.57;101752.06;5004090;28;20393;-86
2022/11/01 07:54:03;;;;;;;;;;;;;;;33.61;24.26;101748.22;5014451;28;19921;-88
2022/11/01 07:56:29;;;;;;;;;;;;;;;33.32;24.75;101754.53;5017123;28;19917;-88
2022/11/01 07:59:01;;;;;;;;;;;;;;;32.73;25.43;101744.19;5023285;28;20008;-90
2022/11/01 08:01:29;;;;;;;;;;;;;;;32.53;25.20;101743.16;5033855;28;19937;-88
2022/11/01 08:03:56;;;;;;;;;;;;;;;33.11;24.81;101751.03;5027389;28;19932;-89
2022/11/01 08:06:22;;;;;;;;;;;;;;;32.89;25.41;101743.00;5021948;28;20317;-89
2022/11/01 08:09:03;;;;;;;;;;;;;;;31.81;26.48;101722.88;5028267;28;19925;-95
2022/11/01 08:11:38;;;;;;;;;;;;;;;32.37;25.97;101741.50;5026902;28;19917;-95
2022/11/01 08:14:05;;;;;;;;;;;;;;;31.64;27.01;101739.03;5044914;28;19996;-94
2022/11/01 08:16:42;;;;;;;;;;;;;;;32.29;26.61;101736.50;5036577;28;19917;-93
2022/11/01 08:19:09;;;;;;;;;;;;;;;31.55;27.36;101733.16;5044949;28;20291;-93
2022/11/01 08:21:36;;;;;;;;;;;;;;;31.70;27.04;101737.91;5024058;28;19970;-91
2022/11/01 08:24:02;;;;;;;;;;;;;;;30.37;29.15;101743.81;5026390;28;19967;-92
2022/11/01 08:29:34;;;;;;;;;;;;;;;31.87;27.10;101726.53;5086748;23;20252;-92
2022/11/01 08:32:06;;;;;;;;;;;;;;;32.49;26.75;101728.09;5053069;28;19955;-91
2022/11/01 08:34:56;;;;;;;;;;;;;;;34.00;24.49;101733.41;5034034;28;19917;-93
2022/11/01 08:37:36;;;;;;;;;;;;;;;33.64;25.20;101737.28;5165043;23;19921;-93
2022/11/01 08:40:20;;;;;;;;;;;;;;;34.01;24.32;101735.03;5018318;28;19988;-92
2022/11/01 08:42:49;;;;;;;;;;;;;;;34.50;24.14;101742.38;4985580;28;19936;-93
2022/11/01 08:45:18;;;;;;;;;;;;;;;33.82;24.84;101741.34;5018249;28;19944;-91
2022/11/01 08:47:52;;;;;;;;;;;;;;;32.92;25.56;101742.44;4976116;28;19926;-96
2022/11/01 08:50:22;;;;;;;;;;;;;;;33.20;25.76;101734.50;4985211;28;19960;-89
2022/11/01 08:52:48;;;;;;;;;;;;;;;32.97;25.62;101739.63;5016017;28;20334;-91
2022/11/01 08:55:17;;;;;;;;;;;;;;;32.72;26.37;101739.75;4981449;28;19925;-91
2022/11/01 09:00:54;;;;;;;;;;;;;;;32.62;26.13;101734.22;4948583;28;19929;-87
2022/11/01 09:06:26;;;;;;;;;;;;;;;32.61;26.23;101736.16;5017530;28;20066;-93
2022/11/01 09:09:03;;;;;;;;;;;;;;;31.35;28.10;101731.16;5019114;28;19922;-94
2022/11/01 09:18:05;;;;;;;;;;;;;;;34.42;24.44;101723.50;5017303;28;19905;-93
2022/11/01 09:24:00;;;;;;;;;;;;;;;34.55;24.19;101719.97;4974587;28;20010;-93
2022/11/01 09:26:32;;;;;;;;;;;;;;;35.88;22.62;101715.28;4978044;28;19925;-91
2022/11/01 09:29:01;;;;;;;;;;;;;;;35.71;21.69;101726.22;4996999;28;19940;-89
2022/11/01 09:31:32;;;;;;;;;;;;;;;35.28;22.64;101715.94;5022989;28;19921;-93
2022/11/01 09:34:10;;;;;;;;;;;;;;;36.55;21.43;101714.06;5018285;28;20381;-92
2022/11/01 09:36:37;;;;;;;;;;;;;;;37.74;20.19;101713.84;5041078;28;19998;-93
2022/11/01 09:39:08;;;;;;;;;;;;;;;36.48;21.70;101719.22;4996914;28;19993;-90
2022/11/01 09:41:48;;;;;;;;;;;;;;;36.08;22.10;101710.44;4994773;28;19937;-92
2022/11/01 09:44:41;;;;;;;;;;;;;;;35.65;22.22;101722.69;5073572;22;19957;-95
2022/11/01 09:50:53;;;;;;;;;;;;;;;37.93;20.66;101710.00;5061555;28;19974;-94
2022/11/01 10:12:19;;;;;;;;;;;;;;;38.23;19.55;101691.53;5075426;28;19993;-92
2022/11/01 10:17:54;;;;;;;;;;;;;;;38.05;19.59;101701.03;5294479;22;20173;-95
2022/11/01 10:21:13;;;;;;;;;;;;;;;38.49;18.77;101699.25;5006992;28;19914;-93
2022/11/01 10:23:51;;;;;;;;;;;;;;;38.81;18.66;101700.81;5217200;23;19925;-91
2022/11/01 10:29:27;;;;;;;;;;;;;;;38.27;19.66;101697.34;5017139;28;19949;-94
2022/11/01 10:31:54;;;;;;;;;;;;;;;36.75;21.68;101688.41;4999178;28;19937;-92
2022/11/01 10:34:48;;;;;;;;;;;;;;;34.84;23.88;101703.16;4995205;28;19933;-93
2022/11/01 10:37:17;;;;;;;;;;;;;;;35.43;23.48;101688.91;5005047;28;19925;-92
2022/11/01 10:39:46;;;;;;;;;;;;;;;34.71;24.04;101701.09;4988132;28;20004;-91
2022/11/01 10:42:14;;;;;;;;;;;;;;;34.20;24.33;101687.72;5007762;28;19997;-90
2022/11/01 10:44:43;;;;;;;;;;;;;;;34.35;23.98;101681.13;5008548;28;19973;-93
2022/11/01 10:47:15;;;;;;;;;;;;;;;34.84;23.87;101682.75;4997504;28;19936;-93
2022/11/01 10:49:48;;;;;;;;;;;;;;;33.59;25.78;101680.75;5001907;28;20022;-90
2022/11/01 10:52:17;;;;;;;;;;;;;;;34.42;24.68;101662.09;4981430;28;19917;-94
2022/11/01 10:54:46;;;;;;;;;;;;;;;34.68;24.04;101674.59;4996418;28;19957;-96
2022/11/01 10:57:17;;;;;;;;;;;;;;;32.45;26.86;101674.13;5016715;28;19945;-90
2022/11/01 11:00:19;;;;;;;;;;;;;;;31.93;27.79;101661.44;5018908;28;19965;-95
2022/11/01 11:02:57;;;;;;;;;;;;;;;33.68;26.10;101670.66;5273089;23;19956;-92
2022/11/01 11:08:38;;;;;;;;;;;;;;;33.67;26.07;101660.63;5046793;28;19937;-95
2022/11/01 12:15:42;;;;;;;;;;;;;;;22.45;47.40;101616.41;1283140;23;20234;-94
2022/11/01 12:18:20;;;;;;;;;;;;;;;22.73;46.93;101623.44;5006934;28;19992;-91
2022/11/01 12:20:52;;;;;;;;;;;;;;;22.87;47.01;101625.03;5012443;28;19944;-94
2022/11/01 12:23:24;;;;;;;;;;;;;;;22.19;48.07;101621.91;5001732;28;19949;-92
2022/11/01 12:25:50;;;;;;;;;;;;;;;22.11;48.58;101626.56;5015670;28;19921;-91
2022/11/01 12:28:25;;;;;;;;;;;;;;;21.48;50.12;101628.94;5001269;28;19917;-92
2022/11/01 12:30:54;;;;;;;;;;;;;;;21.31;50.68;101630.38;4998026;28;20291;-93
2022/11/01 12:33:26;;;;;;;;;;;;;;;21.59;50.07;101639.28;5005992;28;19969;-92
2022/11/01 12:35:58;;;;;;;;;;;;;;;21.50;49.87;101629.59;4986784;28;19924;-92
2022/11/01 12:38:27;;;;;;;;;;;;;;;20.98;51.71;101632.00;5011535;28;20033;-93
2022/11/01 12:40:54;;;;;;;;;;;;;;;20.40;52.98;101629.66;5014732;28;19957;-91
2022/11/01 12:43:32;;;;;;;;;;;;;;;20.17;53.50;101634.56;4999734;28;19917;-91
2022/11/01 12:46:12;;;;;;;;;;;;;;;20.11;53.78;101629.88;5017044;28;19917;-93
2022/11/01 12:48:55;;;;;;;;;;;;;;;19.53;55.25;101636.38;5021921;28;19959;-96
2022/11/01 12:51:48;;;;;;;;;;;;;;;19.63;55.86;101636.03;5019963;28;19917;-93
2022/11/01 12:54:34;;;;;;;;;;;;;;;19.42;56.44;101631.44;5026522;28;19924;-94
2022/11/01 12:57:07;;;;;;;;;;;;;;;19.51;56.33;101630.28;5027543;28;19917;-93
2022/11/01 12:59:35;;;;;;;;;;;;;;;19.48;56.56;101629.81;5022489;28;19937;-90
2022/11/01 13:05:41;;;;;;;;;;;;;;;19.44;56.87;101631.25;4997386;28;19996;-95
2022/11/01 13:08:26;;;;;;;;;;;;;;;19.28;57.09;101635.94;5025425;28;19957;-93
2022/11/01 13:10:52;;;;;;;;;;;;;;;19.15;57.38;101633.94;5017217;28;19976;-94
2022/11/01 13:13:26;;;;;;;;;;;;;;;18.86;58.56;101623.13;5026391;28;19921;-95
2022/11/01 13:15:59;;;;;;;;;;;;;;;18.86;58.97;101628.56;5016997;28;19964;-94
2022/11/01 13:18:38;;;;;;;;;;;;;;;18.94;58.57;101628.44;5010888;28;20059;-92
2022/11/01 13:24:00;;;;;;;;;;;;;;;18.51;60.09;101633.75;5094256;23;19926;-96
2022/11/01 13:26:54;;;;;;;;;;;;;;;18.58;60.21;101629.25;5026484;28;19921;-96
2022/11/01 13:29:46;;;;;;;;;;;;;;;18.62;59.95;101627.84;5027798;28;19921;-95
2022/11/01 13:33:00;;;;;;;;;;;;;;;18.57;59.58;101624.84;5021828;28;19921;-96
2022/11/01 13:35:50;;;;;;;;;;;;;;;18.31;60.68;101615.28;5026299;28;19975;-95
2022/11/01 13:38:40;;;;;;;;;;;;;;;18.52;60.12;101619.13;5020418;28;19917;-94
2022/11/01 13:41:24;;;;;;;;;;;;;;;18.60;60.36;101623.63;5018727;28;19924;-94
2022/11/01 13:44:29;;;;;;;;;;;;;;;18.33;61.18;101618.69;5014589;28;19921;-96
2022/11/01 13:47:10;;;;;;;;;;;;;;;18.35;61.28;101615.75;5023343;28;19922;-94
2022/11/01 13:50:23;;;;;;;;;;;;;;;18.28;61.03;101621.09;5014147;28;19933;-96
2022/11/01 13:53:17;;;;;;;;;;;;;;;18.12;61.86;101624.00;5010084;28;19913;-95
2022/11/01 13:55:57;;;;;;;;;;;;;;;17.99;61.79;101616.50;5025262;28;19973;-96
2022/11/01 13:58:44;;;;;;;;;;;;;;;18.03;62.06;101614.28;5021213;28;20322;-96
2022/11/01 14:01:49;;;;;;;;;;;;;;;17.66;62.59;101613.25;4989812;28;20353;-96
2022/11/01 14:04:36;;;;;;;;;;;;;;;17.62;63.15;101612.75;4950054;29;19955;-95
2022/11/01 14:07:12;;;;;;;;;;;;;;;17.60;62.90;101612.09;4938694;29;19937;-95
2022/11/01 14:10:04;;;;;;;;;;;;;;;17.49;63.16;101613.41;4984524;28;19986;-95
2022/11/01 14:13:02;;;;;;;;;;;;;;;17.44;63.40;101620.41;4971005;28;19966;-94
2022/11/01 14:15:49;;;;;;;;;;;;;;;17.24;64.89;101614.63;4962260;28;19944;-93
2022/11/01 14:19:05;;;;;;;;;;;;;;;17.27;64.71;101619.69;4970928;29;19911;-93
2022/11/01 14:25:22;;;;;;;;;;;;;;;17.26;65.25;101618.00;5064329;28;19951;-96
2022/11/01 14:28:17;;;;;;;;;;;;;;;17.15;65.51;101607.56;5030410;28;20335;-96
2022/11/01 14:31:03;;;;;;;;;;;;;;;17.06;65.69;101604.88;5054557;28;20035;-96
2022/11/01 14:33:40;;;;;;;;;;;;;;;17.12;65.48;101610.66;5057652;28;19912;-95
2022/11/01 14:36:49;;;;;;;;;;;;;;;17.06;65.47;101613.03;5050731;28;19917;-96
2022/11/01 14:40:03;;;;;;;;;;;;;;;16.91;65.97;101609.44;5067713;28;19995;-96
2022/11/01 14:42:42;;;;;;;;;;;;;;;16.75;67.00;101604.06;5055403;28;19928;-94
2022/11/01 14:45:35;;;;;;;;;;;;;;;16.77;66.56;101602.84;5034127;28;19920;-96
2022/11/01 14:48:26;;;;;;;;;;;;;;;16.64;67.04;101611.56;5061661;28;19931;-95
2022/11/01 14:51:26;;;;;;;;;;;;;;;16.53;67.81;101602.97;5032533;28;19925;-95
2022/11/01 15:03:55;;;;;;;;;;;;;;;16.30;68.85;101606.47;5048884;28;20063;-94
2022/11/01 16:10:28;;;;;;;;;;;;;;;15.32;74.64;101615.59;5487430;22;19953;-90
2022/11/01 16:12:59;;;;;;;;;;;;;;;15.30;74.75;101617.63;5021298;28;19921;-89
2022/11/01 16:15:57;;;;;;;;;;;;;;;15.32;74.84;101607.47;5005420;28;19928;-90
2022/11/01 16:18:53;;;;;;;;;;;;;;;15.26;75.30;101607.28;5013552;28;19921;-91
2022/11/01 16:21:40;;;;;;;;;;;;;;;15.19;75.52;101612.53;5021759;28;20008;-91
2022/11/01 16:24:14;;;;;;;;;;;;;;;15.22;75.63;101612.22;5001031;28;20283;-94
2022/11/01 16:27:00;;;;;;;;;;;;;;;15.20;75.65;101614.25;4966960;28;20012;-92
2022/11/01 16:30:10;;;;;;;;;;;;;;;15.22;75.73;101623.06;4990382;28;19949;-89